Time;durP1;ratioP1;P1;durP2;ratioP2;P2;SDS_P1;SDS_P2;PMS_P1;PMS_P2;Temp;Humidity;BMP_temperature;BMP_pressure;BME280_temperature;BME280_humidity;BME280_pressure;Samples;Min_cycle;Max_cycle;Signal;HPM_P1;HPM_P2
2020/12/26 00:00:48;;;;;;;29.08;14.98;;;;;;;10.98;74.82;96988.09;5035651;28;20033;-85
2020/12/26 00:03:14;;;;;;;32.38;16.15;;;;;;;10.93;75.31;96973.31;5052260;28;20025;-85
2020/12/26 00:05:46;;;;;;;30.35;15.77;;;;;;;10.91;74.81;96976.09;5035435;28;20106;-85
2020/12/26 00:08:21;;;;;;;35.15;17.83;;;;;;;10.90;76.17;96982.41;5035385;28;20492;-85
2020/12/26 00:10:48;;;;;;;33.00;16.83;;;;;;;10.89;75.38;96973.53;5035865;28;20045;-85
2020/12/26 00:13:14;;;;;;;29.67;15.57;;;;;;;10.88;75.27;96982.53;5051374;28;20036;-85
2020/12/26 00:15:39;;;;;;;32.33;16.70;;;;;;;10.93;74.77;96978.66;5034961;28;20012;-85
2020/12/26 00:18:05;;;;;;;44.80;21.48;;;;;;;10.89;75.58;96981.56;5035440;28;20036;-85
2020/12/26 00:20:31;;;;;;;36.83;19.00;;;;;;;10.86;75.87;96987.13;5035188;28;20033;-85
2020/12/26 00:22:56;;;;;;;39.33;20.73;;;;;;;10.83;76.47;96986.50;5034228;28;20051;-85
2020/12/26 00:25:22;;;;;;;43.88;19.73;;;;;;;10.86;76.33;96987.13;5034661;28;20028;-86
2020/12/26 00:27:47;;;;;;;40.63;20.20;;;;;;;10.87;76.69;96979.97;5051579;28;20033;-86
2020/12/26 00:30:13;;;;;;;55.63;24.88;;;;;;;10.92;76.36;96999.19;5033859;28;20496;-86
2020/12/26 00:32:39;;;;;;;44.80;21.00;;;;;;;10.78;76.38;96992.19;5031548;28;20029;-86
2020/12/26 00:35:04;;;;;;;44.05;19.85;;;;;;;10.79;77.21;96993.91;5034796;28;20078;-86
2020/12/26 00:37:30;;;;;;;29.73;16.13;;;;;;;10.84;76.89;97010.47;5035040;28;20067;-86
2020/12/26 00:39:56;;;;;;;29.98;14.82;;;;;;;10.77;76.60;97013.69;5031304;28;20560;-86
2020/12/26 00:42:21;;;;;;;29.38;14.77;;;;;;;10.84;76.93;97006.94;5050477;28;20064;-86
2020/12/26 00:44:47;;;;;;;24.83;13.52;;;;;;;10.76;77.46;97014.66;5034651;28;20031;-86
2020/12/26 00:47:12;;;;;;;24.75;12.77;;;;;;;10.76;77.76;97020.88;5035313;28;20500;-85
2020/12/26 00:49:38;;;;;;;24.27;12.18;;;;;;;10.74;77.98;97014.75;5051779;28;20025;-86
2020/12/26 00:52:04;;;;;;;26.67;12.35;;;;;;;10.80;77.82;97013.47;5034778;28;20095;-85
2020/12/26 00:54:29;;;;;;;20.60;11.10;;;;;;;10.81;78.18;97013.38;5034476;28;20040;-86
2020/12/26 00:56:55;;;;;;;18.98;10.00;;;;;;;10.82;78.63;97015.09;5035109;28;20492;-86
2020/12/26 00:59:20;;;;;;;21.77;10.68;;;;;;;10.71;78.94;97011.44;5051927;28;20028;-85
2020/12/26 01:01:52;;;;;;;44.90;19.40;;;;;;;10.72;78.97;97003.31;5036164;28;20118;-85
2020/12/26 01:04:18;;;;;;;26.65;12.52;;;;;;;10.65;79.66;97009.19;5035383;28;20036;-85
2020/12/26 01:06:44;;;;;;;28.20;14.00;;;;;;;10.63;79.92;96992.44;5035416;28;20021;-85
2020/12/26 01:09:10;;;;;;;46.40;18.20;;;;;;;10.62;79.10;96996.03;5035322;28;20025;-85
2020/12/26 01:11:35;;;;;;;51.45;20.88;;;;;;;10.57;79.95;96999.06;5034983;28;20044;-85
2020/12/26 01:14:01;;;;;;;37.63;17.42;;;;;;;10.49;80.64;96995.22;5034730;28;20024;-85
2020/12/26 01:16:27;;;;;;;43.50;14.25;;;;;;;10.43;81.06;96987.63;5034860;28;20037;-85
2020/12/26 01:18:52;;;;;;;32.60;14.15;;;;;;;10.53;80.84;97002.06;5034782;28;20089;-85
2020/12/26 01:21:18;;;;;;;28.52;14.18;;;;;;;10.47;81.12;97005.16;5035026;28;20024;-85
2020/12/26 01:23:43;;;;;;;20.98;11.27;;;;;;;10.50;81.66;97008.47;5034036;28;20029;-85
2020/12/26 01:26:09;;;;;;;20.92;12.13;;;;;;;10.52;81.18;96995.84;5050540;28;20021;-85
2020/12/26 01:28:35;;;;;;;21.60;10.88;;;;;;;10.50;81.67;97000.44;5050472;28;20033;-85
2020/12/26 01:31:00;;;;;;;21.70;9.98;;;;;;;10.46;81.83;96984.75;5033916;28;20032;-86
2020/12/26 01:33:26;;;;;;;15.23;9.65;;;;;;;10.29;82.43;96984.09;5033910;28;20029;-86
2020/12/26 01:35:51;;;;;;;21.27;11.68;;;;;;;10.26;82.57;96975.44;5033662;28;20058;-86
2020/12/26 01:38:17;;;;;;;18.95;10.95;;;;;;;10.28;83.65;96984.19;5034018;28;20043;-86
2020/12/26 01:40:50;;;;;;;15.50;8.93;;;;;;;10.28;82.65;96989.53;5034100;28;20094;-85
2020/12/26 01:43:16;;;;;;;14.25;9.10;;;;;;;10.29;82.95;96984.09;5054538;28;20028;-85
2020/12/26 01:45:41;;;;;;;24.70;12.73;;;;;;;10.24;83.28;96975.53;5037511;28;20037;-84
2020/12/26 01:48:07;;;;;;;32.22;16.25;;;;;;;10.26;83.41;96978.97;5038374;28;20053;-85
2020/12/26 01:50:33;;;;;;;19.48;9.38;;;;;;;10.22;83.14;96955.22;5038004;28;20116;-85
2020/12/26 01:52:58;;;;;;;18.35;9.80;;;;;;;10.14;83.87;96953.09;5037965;28;20033;-85
2020/12/26 01:55:24;;;;;;;32.60;14.40;;;;;;;10.07;84.04;96964.28;5037886;28;20049;-85
2020/12/26 01:57:51;;;;;;;26.27;13.73;;;;;;;10.08;84.65;96979.38;5037998;28;20060;-86
2020/12/26 02:00:18;;;;;;;27.63;14.60;;;;;;;10.03;84.73;96977.00;5054656;28;20064;-86
2020/12/26 02:02:44;;;;;;;31.25;14.00;;;;;;;10.06;84.78;96982.13;5038259;28;20037;-86
2020/12/26 02:05:10;;;;;;;33.63;14.57;;;;;;;10.09;84.88;96984.59;5038516;28;20060;-85
2020/12/26 02:07:35;;;;;;;23.48;10.50;;;;;;;10.01;85.31;96983.41;5054148;28;20064;-86
2020/12/26 02:10:01;;;;;;;25.58;12.65;;;;;;;9.96;85.68;96986.41;5054780;28;20127;-86
2020/12/26 02:12:27;;;;;;;39.17;17.35;;;;;;;9.87;86.14;96996.88;5035452;28;20036;-85
2020/12/26 02:14:52;;;;;;;25.63;11.40;;;;;;;9.97;86.04;96998.78;5031817;28;20422;-85
2020/12/26 02:17:31;;;;;;;27.15;11.98;;;;;;;9.81;86.88;96982.13;5038884;28;20047;-86
2020/12/26 02:19:57;;;;;;;16.30;9.07;;;;;;;9.83;87.04;96988.19;5040212;28;20021;-85
2020/12/26 02:22:22;;;;;;;18.55;9.65;;;;;;;9.73;87.51;96981.75;5037769;28;20453;-85
2020/12/26 02:24:48;;;;;;;16.38;8.82;;;;;;;9.67;87.92;96990.19;5054732;28;20146;-86
2020/12/26 02:27:14;;;;;;;14.50;8.20;;;;;;;9.56;88.74;96987.41;5037142;28;20029;-85
2020/12/26 02:29:39;;;;;;;15.93;8.82;;;;;;;9.43;89.71;96997.16;5053779;28;20094;-86
2020/12/26 02:32:05;;;;;;;14.63;8.98;;;;;;;9.31;90.27;97006.84;5037895;28;20029;-85
2020/12/26 02:34:31;;;;;;;34.03;14.95;;;;;;;9.30;91.09;97017.59;5053500;28;20032;-85
2020/12/26 02:36:56;;;;;;;27.10;12.45;;;;;;;9.20;91.49;97018.22;5037003;28;20029;-85
2020/12/26 02:39:22;;;;;;;23.42;11.02;;;;;;;9.15;92.13;97009.66;5033689;28;20104;-85
2020/12/26 02:41:48;;;;;;;21.17;11.48;;;;;;;9.14;92.24;97002.59;5069556;28;20032;-85
2020/12/26 02:44:13;;;;;;;19.48;10.13;;;;;;;9.19;91.84;97013.84;5036829;28;20492;-85
2020/12/26 02:46:39;;;;;;;14.25;8.30;;;;;;;9.24;91.61;97025.06;5053679;28;20040;-85
2020/12/26 02:49:05;;;;;;;16.98;8.35;;;;;;;9.29;91.57;97026.59;5036598;28;20025;-85
2020/12/26 02:51:33;;;;;;;13.80;8.00;;;;;;;9.20;91.86;97033.34;5036570;28;20111;-86
2020/12/26 02:53:59;;;;;;;15.75;9.20;;;;;;;9.21;91.67;97022.59;5036185;28;20041;-85
2020/12/26 02:56:25;;;;;;;24.33;12.30;;;;;;;9.26;91.88;97031.16;5037156;28;20028;-85
2020/12/26 02:58:50;;;;;;;24.63;12.10;;;;;;;9.18;91.53;97025.47;5036367;28;20033;-85
2020/12/26 03:01:16;;;;;;;25.10;11.55;;;;;;;9.11;92.26;97033.94;5033203;28;20033;-85
2020/12/26 03:03:41;;;;;;;23.05;11.43;;;;;;;9.03;92.96;97036.25;5036894;28;20060;-85
2020/12/26 03:06:07;;;;;;;23.92;11.43;;;;;;;9.07;92.87;97045.78;5037008;28;20029;-86
2020/12/26 03:08:33;;;;;;;23.70;11.55;;;;;;;9.14;92.38;97044.41;5037473;28;20029;-85
2020/12/26 03:10:58;;;;;;;15.50;8.52;;;;;;;9.18;92.05;97045.94;5036227;28;20504;-85
2020/12/26 03:13:24;;;;;;;19.30;10.07;;;;;;;9.22;91.67;97051.00;5036573;28;20025;-86
2020/12/26 03:15:49;;;;;;;15.13;8.95;;;;;;;9.16;91.97;97038.06;5035930;28;20028;-85
2020/12/26 03:18:15;;;;;;;20.48;10.85;;;;;;;9.14;91.87;97053.28;5037131;28;20055;-85
2020/12/26 03:20:41;;;;;;;17.95;10.35;;;;;;;9.07;92.61;97056.47;5036943;28;20068;-85
2020/12/26 03:23:06;;;;;;;25.08;13.45;;;;;;;9.02;92.76;97058.56;5037205;28;20419;-85
2020/12/26 03:25:33;;;;;;;12.45;7.97;;;;;;;9.04;92.72;97060.19;5037624;28;20033;-85
2020/12/26 03:27:58;;;;;;;15.45;8.38;;;;;;;9.00;92.81;97050.66;5037503;28;20021;-85
2020/12/26 03:30:24;;;;;;;14.70;7.85;;;;;;;8.95;93.31;97066.06;5037242;28;20454;-85
2020/12/26 03:32:50;;;;;;;16.30;9.75;;;;;;;8.91;93.93;97063.72;5036941;28;20100;-85
2020/12/26 03:35:16;;;;;;;17.33;8.98;;;;;;;8.89;94.14;97060.31;5036398;28;20032;-85
2020/12/26 03:37:41;;;;;;;20.67;10.63;;;;;;;8.91;93.85;97059.25;5036690;28;20055;-85
2020/12/26 03:40:08;;;;;;;17.42;9.73;;;;;;;8.98;93.59;97065.06;5036586;28;20035;-85
2020/12/26 03:42:34;;;;;;;19.05;10.77;;;;;;;8.99;93.32;97078.28;5036606;28;20033;-85
2020/12/26 03:44:59;;;;;;;25.77;13.18;;;;;;;8.95;93.98;97060.75;5051940;28;20098;-85
2020/12/26 03:47:25;;;;;;;19.30;10.02;;;;;;;9.09;92.94;97058.06;5035535;28;20033;-85
2020/12/26 03:49:51;;;;;;;17.20;8.65;;;;;;;9.15;92.46;97062.16;5035801;28;20112;-85
2020/12/26 03:52:16;;;;;;;19.83;8.15;;;;;;;9.11;92.62;97058.81;5036611;28;20515;-84
2020/12/26 03:54:42;;;;;;;17.60;9.40;;;;;;;9.12;92.35;97065.88;5035793;28;20033;-84
2020/12/26 03:57:08;;;;;;;16.02;9.15;;;;;;;9.07;92.83;97060.00;5035842;28;20029;-84
2020/12/26 03:59:33;;;;;;;19.13;9.85;;;;;;;9.08;92.90;97059.00;5035507;28;20033;-85
2020/12/26 04:01:59;;;;;;;18.60;11.35;;;;;;;9.15;92.34;97068.34;5035336;28;20040;-85
2020/12/26 04:04:25;;;;;;;18.75;10.88;;;;;;;9.14;92.54;97061.28;5051166;28;20182;-85
2020/12/26 04:06:50;;;;;;;19.67;9.90;;;;;;;9.16;92.58;97059.41;5052901;28;20558;-85
2020/12/26 04:09:16;;;;;;;20.13;10.05;;;;;;;9.24;92.19;97069.56;5034734;28;20049;-85
2020/12/26 04:11:42;;;;;;;21.58;10.07;;;;;;;9.23;91.96;97078.53;5036356;28;20056;-85
2020/12/26 04:14:07;;;;;;;19.85;11.00;;;;;;;9.25;92.24;97085.50;5034622;28;20385;-85
2020/12/26 04:16:33;;;;;;;21.15;12.15;;;;;;;9.40;91.20;97094.31;5034569;28;20131;-85
2020/12/26 04:18:59;;;;;;;23.83;10.75;;;;;;;9.31;91.57;97084.25;5052149;28;20419;-85
2020/12/26 04:21:25;;;;;;;15.77;9.15;;;;;;;9.20;92.22;97076.91;5035315;28;20506;-86
2020/12/26 04:23:52;;;;;;;18.08;8.75;;;;;;;9.29;91.84;97075.44;5034958;28;20036;-85
2020/12/26 04:26:17;;;;;;;17.02;9.32;;;;;;;9.39;91.20;97071.25;5035099;28;20025;-85
2020/12/26 04:28:43;;;;;;;19.98;11.30;;;;;;;9.42;90.69;97070.19;5051660;28;20032;-85
2020/12/26 04:31:09;;;;;;;22.83;12.18;;;;;;;9.52;89.97;97077.50;5034628;28;21396;-85
2020/12/26 04:33:35;;;;;;;28.42;13.40;;;;;;;9.54;89.43;97072.91;5035374;28;20033;-85
2020/12/26 04:36:01;;;;;;;32.10;15.32;;;;;;;9.46;89.82;97064.56;5035512;28;20036;-85
2020/12/26 04:38:27;;;;;;;33.20;16.25;;;;;;;9.56;89.39;97068.34;5035232;28;20056;-85
2020/12/26 04:40:53;;;;;;;33.97;16.13;;;;;;;9.49;89.84;97072.38;5035077;28;20063;-85
2020/12/26 04:43:18;;;;;;;29.35;15.02;;;;;;;9.40;90.14;97075.63;5051674;28;20049;-85
2020/12/26 04:45:44;;;;;;;22.75;11.38;;;;;;;9.41;90.32;97068.50;5035617;28;20043;-86
2020/12/26 04:48:14;;;;;;;16.58;8.82;;;;;;;9.40;90.31;97066.78;5034776;28;20037;-85
2020/12/26 04:50:46;;;;;;;14.73;8.57;;;;;;;9.42;90.21;97078.19;5051127;28;20029;-85
2020/12/26 04:53:15;;;;;;;16.40;7.75;;;;;;;9.31;90.06;97070.91;5034731;28;20512;-85
2020/12/26 04:55:47;;;;;;;11.75;6.40;;;;;;;9.25;90.99;97073.97;5034576;28;20039;-85
2020/12/26 04:58:13;;;;;;;15.32;7.20;;;;;;;9.20;91.18;97068.03;5034932;28;20473;-85
2020/12/26 05:00:39;;;;;;;9.82;6.25;;;;;;;9.28;91.18;97068.44;5035097;28;20033;-85
2020/12/26 05:03:07;;;;;;;15.48;6.75;;;;;;;9.19;91.45;97074.34;5035118;28;20120;-86
2020/12/26 05:05:40;;;;;;;14.63;7.38;;;;;;;9.29;91.67;97077.28;5028550;28;20037;-85
2020/12/26 05:08:13;;;;;;;12.63;6.88;;;;;;;9.29;91.61;97079.97;5034840;28;20036;-86
2020/12/26 05:10:40;;;;;;;10.38;6.93;;;;;;;9.29;91.46;97074.63;5035055;28;20049;-86
2020/12/26 05:13:07;;;;;;;12.38;7.30;;;;;;;9.27;91.07;97080.03;5034485;28;20044;-85
2020/12/26 05:15:34;;;;;;;13.35;7.75;;;;;;;9.25;91.34;97069.50;5034851;28;20029;-85
2020/12/26 05:18:00;;;;;;;12.23;7.35;;;;;;;9.30;91.05;97070.97;5051321;28;20044;-85
2020/12/26 05:20:26;;;;;;;12.52;6.65;;;;;;;9.32;90.94;97075.25;5052151;28;20033;-85
2020/12/26 05:23:13;;;;;;;12.98;7.30;;;;;;;9.24;91.11;97062.44;5036012;28;20036;-85
2020/12/26 05:25:43;;;;;;;14.63;7.18;;;;;;;9.23;91.16;97055.38;5044646;28;20143;-85
2020/12/26 05:28:16;;;;;;;14.75;7.95;;;;;;;9.14;91.64;97055.09;5035217;28;20423;-86
2020/12/26 05:30:43;;;;;;;15.35;8.48;;;;;;;9.11;92.10;97061.50;5035792;28;20029;-86
2020/12/26 05:33:09;;;;;;;18.25;9.30;;;;;;;9.02;92.35;97062.06;5035753;28;20025;-85
2020/12/26 05:35:52;;;;;;;13.85;8.30;;;;;;;8.93;93.21;97062.66;5034950;28;20056;-85
2020/12/26 05:38:19;;;;;;;13.27;7.85;;;;;;;8.90;93.06;97067.31;5035371;28;20029;-85
2020/12/26 05:40:58;;;;;;;17.05;8.27;;;;;;;8.88;93.53;97075.44;5034952;28;20670;-86
2020/12/26 05:43:31;;;;;;;14.65;8.25;;;;;;;8.81;93.77;97063.44;5035095;28;20381;-85
2020/12/26 05:45:57;;;;;;;16.70;9.68;;;;;;;8.82;93.83;97054.50;5035171;28;20029;-85
2020/12/26 05:48:25;;;;;;;27.88;13.55;;;;;;;8.84;93.70;97055.25;5035263;28;20039;-85
2020/12/26 05:50:57;;;;;;;64.93;27.23;;;;;;;8.90;93.26;97062.84;5035197;28;20060;-85
2020/12/26 05:53:27;;;;;;;78.47;32.42;;;;;;;8.87;93.58;97057.72;5034434;28;20053;-85
2020/12/26 05:55:53;;;;;;;60.08;25.52;;;;;;;8.93;93.99;97067.13;5034320;28;20032;-86
2020/12/26 05:58:21;;;;;;;54.38;27.08;;;;;;;8.96;93.98;97065.13;5050766;28;20484;-86
2020/12/26 06:00:47;;;;;;;54.92;25.98;;;;;;;8.93;93.90;97057.31;5034110;28;20122;-86
2020/12/26 06:03:30;;;;;;;49.35;24.17;;;;;;;9.04;93.63;97064.66;5034560;28;20447;-85
2020/12/26 06:06:02;;;;;;;66.40;33.70;;;;;;;8.93;93.55;97067.13;5034751;28;20064;-85
2020/12/26 06:08:28;;;;;;;61.83;33.47;;;;;;;8.89;93.83;97082.47;5033821;28;20499;-85
2020/12/26 06:11:04;;;;;;;59.17;31.40;;;;;;;8.92;93.88;97079.59;5034318;28;20077;-85
2020/12/26 06:13:31;;;;;;;69.57;33.50;;;;;;;8.87;94.00;97084.38;5034687;28;20043;-86
2020/12/26 06:16:10;;;;;;;71.88;34.15;;;;;;;8.83;94.34;97080.19;5051708;28;20104;-85
2020/12/26 06:18:40;;;;;;;63.17;30.25;;;;;;;8.87;94.09;97081.72;5051184;28;20056;-86
2020/12/26 06:21:07;;;;;;;63.63;30.67;;;;;;;8.78;94.64;97079.63;5034714;28;20047;-86
2020/12/26 06:23:36;;;;;;;62.63;29.92;;;;;;;8.82;94.30;97086.50;5034080;28;20034;-86
2020/12/26 06:26:02;;;;;;;55.67;27.63;;;;;;;8.80;94.97;97083.03;5035354;28;20033;-86
2020/12/26 06:28:30;;;;;;;37.20;19.15;;;;;;;8.85;94.59;97091.63;5037079;28;20468;-86
2020/12/26 06:31:01;;;;;;;31.15;16.75;;;;;;;8.87;94.52;97089.72;5038488;28;20458;-85
2020/12/26 06:33:30;;;;;;;34.30;17.80;;;;;;;8.88;94.55;97096.78;5037645;28;20033;-85
2020/12/26 06:35:57;;;;;;;32.28;17.63;;;;;;;8.96;94.25;97106.94;5037816;28;20025;-85
2020/12/26 06:38:32;;;;;;;28.40;14.95;;;;;;;9.00;94.18;97106.69;5037150;28;20025;-85
2020/12/26 06:41:04;;;;;;;34.22;19.35;;;;;;;9.08;93.79;97112.38;5031778;28;20035;-84
2020/12/26 06:43:42;;;;;;;;;;;;;;;9.04;94.27;97113.53;5054065;28;20508;-85
2020/12/26 06:46:28;;;;;;;28.45;16.80;;;;;;;9.12;93.80;97113.03;5054963;28;20383;-86
2020/12/26 06:48:55;;;;;;;23.20;13.45;;;;;;;9.12;93.57;97105.91;5043502;28;20032;-84
2020/12/26 06:51:24;;;;;;;20.85;13.32;;;;;;;9.26;92.93;97116.53;5037467;28;20025;-85
2020/12/26 06:53:53;;;;;;;19.85;11.85;;;;;;;9.26;92.89;97127.22;5052578;28;20120;-87
2020/12/26 06:56:34;;;;;;;22.38;12.52;;;;;;;9.26;92.74;97129.88;5039024;28;20029;-87
2020/12/26 06:59:04;;;;;;;22.13;12.88;;;;;;;9.29;92.46;97125.31;5054992;28;20025;-86
2020/12/26 07:01:31;;;;;;;28.08;14.40;;;;;;;9.33;91.98;97122.34;5038379;28;20102;-85
2020/12/26 07:04:15;;;;;;;25.23;14.60;;;;;;;9.42;91.85;97119.09;5038634;28;20025;-86
2020/12/26 07:06:46;;;;;;;34.30;18.00;;;;;;;9.48;91.06;97113.34;5055327;28;20057;-87
2020/12/26 07:09:14;;;;;;;46.15;25.10;;;;;;;9.57;90.84;97118.09;5056245;28;20025;-88
2020/12/26 07:11:51;;;;;;;55.92;28.55;;;;;;;9.66;90.31;97121.97;5038767;28;20090;-85
2020/12/26 07:14:28;;;;;;;55.97;29.65;;;;;;;9.70;90.11;97115.50;5037502;28;20024;-86
2020/12/26 07:16:53;;;;;;;123.40;54.25;;;;;;;9.77;89.37;97119.47;5052734;28;20056;-85
2020/12/26 07:19:38;;;;;;;139.82;62.78;;;;;;;9.85;88.80;97126.97;5053376;28;20476;-84
2020/12/26 07:22:10;;;;;;;76.75;45.08;;;;;;;9.87;88.30;97123.28;5036343;28;20086;-84
2020/12/26 07:24:39;;;;;;;67.78;36.97;;;;;;;9.98;87.42;97127.88;5053987;28;20056;-85
2020/12/26 07:27:12;;;;;;;73.65;40.25;;;;;;;9.98;87.25;97131.41;5037253;28;20037;-85
2020/12/26 07:29:58;;;;;;;73.43;40.85;;;;;;;10.07;87.32;97122.78;5031933;28;20055;-86
2020/12/26 07:32:36;;;;;;;80.18;41.15;;;;;;;10.04;87.19;97104.28;5034994;28;20047;-85
2020/12/26 07:35:03;;;;;;;74.82;39.88;;;;;;;9.96;88.20;97106.63;5052977;28;20567;-85
2020/12/26 07:37:29;;;;;;;66.53;34.33;;;;;;;10.01;87.73;97107.16;5037302;28;20503;-86
2020/12/26 07:39:54;;;;;;;69.22;36.30;;;;;;;9.83;88.52;97097.72;5054665;28;20028;-86
2020/12/26 07:42:22;;;;;;;64.00;33.80;;;;;;;9.90;88.65;97112.38;5038195;28;20033;-86
2020/12/26 07:44:48;;;;;;;67.22;33.38;;;;;;;9.90;88.61;97106.19;5035949;28;20480;-86
2020/12/26 07:47:15;;;;;;;56.10;27.38;;;;;;;9.87;88.57;97104.56;5036119;28;20033;-86
2020/12/26 07:49:40;;;;;;;44.50;23.88;;;;;;;9.87;87.89;97101.03;5036581;28;20025;-85
2020/12/26 07:52:08;;;;;;;37.45;22.25;;;;;;;9.88;87.61;97106.25;5038125;28;20029;-86
2020/12/26 07:54:34;;;;;;;43.85;25.98;;;;;;;9.99;87.07;97098.41;5037197;28;20055;-86
2020/12/26 07:57:00;;;;;;;46.80;24.88;;;;;;;10.02;86.78;97111.56;5036722;28;20415;-86
2020/12/26 07:59:26;;;;;;;39.25;23.63;;;;;;;10.13;86.57;97111.72;5053427;28;20115;-86
2020/12/26 08:01:56;;;;;;;42.45;23.95;;;;;;;10.02;86.57;97119.59;5035776;28;20118;-86
2020/12/26 08:04:22;;;;;;;78.85;33.42;;;;;;;9.86;88.06;97110.88;5035512;28;20591;-86
2020/12/26 08:06:48;;;;;;;60.30;28.95;;;;;;;9.89;87.92;97108.00;5037014;28;20029;-86
2020/12/26 08:09:15;;;;;;;43.65;24.17;;;;;;;9.76;88.60;97101.72;5037386;28;20436;-85
2020/12/26 08:11:42;;;;;;;75.07;39.90;;;;;;;9.64;89.33;97107.88;5035221;28;20539;-85
2020/12/26 08:14:09;;;;;;;95.10;45.13;;;;;;;9.71;88.68;97094.03;5036390;28;20036;-86
2020/12/26 08:16:36;;;;;;;62.10;34.13;;;;;;;9.67;88.93;97087.19;5036922;28;20056;-85
2020/12/26 08:19:03;;;;;;;66.63;34.85;;;;;;;9.68;89.81;97107.59;5036410;28;20025;-83
2020/12/26 08:21:50;;;;;;;70.88;36.90;;;;;;;9.69;89.91;97111.13;5036222;28;20462;-84
2020/12/26 08:24:46;;;;;;;70.05;37.50;;;;;;;9.80;89.29;97111.28;5055473;28;20560;-89
2020/12/26 08:27:12;;;;;;;72.82;38.33;;;;;;;9.85;88.50;97102.94;5054730;28;20051;-90
2020/12/26 08:29:38;;;;;;;71.72;40.28;;;;;;;9.84;88.47;97096.75;5037410;28;20029;-83
2020/12/26 08:32:08;;;;;;;77.97;39.60;;;;;;;9.97;88.30;97124.34;5036541;28;20507;-81
2020/12/26 08:34:41;;;;;;;66.88;37.35;;;;;;;10.01;87.94;97128.53;5052324;28;20013;-83
2020/12/26 08:37:16;;;;;;;66.13;35.80;;;;;;;10.06;87.68;97121.06;5036715;28;20048;-80
2020/12/26 08:39:43;;;;;;;63.63;34.05;;;;;;;10.21;86.76;97119.25;5052221;28;20074;-84
2020/12/26 08:42:12;;;;;;;63.88;33.83;;;;;;;10.25;86.09;97121.59;5037386;28;20029;-86
2020/12/26 08:44:38;;;;;;;72.60;34.35;;;;;;;10.28;85.47;97113.38;5054233;28;20039;-85
2020/12/26 08:47:04;;;;;;;98.13;50.00;;;;;;;10.23;85.84;97106.63;5055032;28;20476;-90
2020/12/26 08:49:30;;;;;;;87.55;44.40;;;;;;;10.24;86.33;97124.38;5055693;28;20415;-87
2020/12/26 08:51:55;;;;;;;101.32;54.38;;;;;;;10.35;86.85;97111.13;5053350;28;20037;-88
2020/12/26 08:54:22;;;;;;;109.35;55.75;;;;;;;10.40;85.65;97113.50;5052682;28;20028;-82
2020/12/26 08:56:48;;;;;;;100.70;54.58;;;;;;;10.47;84.82;97126.34;5052735;28;20036;-84
2020/12/26 08:59:26;;;;;;;92.78;52.05;;;;;;;10.57;85.00;97122.06;5034497;28;20764;-83
2020/12/26 09:01:55;;;;;;;83.47;46.67;;;;;;;10.55;84.02;97115.13;5034786;28;20507;-84
2020/12/26 09:04:21;;;;;;;82.45;47.22;;;;;;;10.63;83.43;97112.78;5031846;28;20508;-84
2020/12/26 09:06:47;;;;;;;83.05;45.70;;;;;;;10.72;83.58;97125.50;5034534;28;20112;-83
2020/12/26 09:09:19;;;;;;;88.53;48.72;;;;;;;10.92;82.26;97118.78;5034434;28;20480;-83
2020/12/26 09:11:46;;;;;;;93.38;52.08;;;;;;;11.00;81.89;97125.31;5034238;28;20652;-84
2020/12/26 09:14:19;;;;;;;109.20;59.13;;;;;;;11.05;81.43;97123.16;5034630;28;20553;-83
2020/12/26 09:17:08;;;;;;;131.88;67.50;;;;;;;11.09;81.65;97119.28;5028725;28;20025;-84
2020/12/26 09:19:47;;;;;;;121.53;67.72;;;;;;;11.24;80.32;97118.19;5034626;28;20039;-84
2020/12/26 09:22:13;;;;;;;132.48;69.40;;;;;;;11.22;81.02;97117.47;5051149;28;20383;-83
2020/12/26 09:24:39;;;;;;;122.90;65.13;;;;;;;11.23;80.37;97121.84;5051820;28;20032;-86
2020/12/26 09:27:05;;;;;;;116.32;64.38;;;;;;;11.29;79.55;97110.69;5052211;28;20409;-84
2020/12/26 09:29:30;;;;;;;126.60;68.45;;;;;;;11.36;79.05;97111.97;5034545;28;20044;-85
2020/12/26 09:31:56;;;;;;;145.25;78.00;;;;;;;11.26;79.47;97113.59;5033582;28;20411;-84
2020/12/26 09:34:24;;;;;;;126.68;70.72;;;;;;;11.31;79.52;97108.78;5053304;28;20449;-86
2020/12/26 09:37:07;;;;;;;124.10;67.63;;;;;;;11.40;79.49;97117.97;5053876;28;20032;-84
2020/12/26 09:39:33;;;;;;;121.35;67.30;;;;;;;11.40;79.63;97108.09;5034863;28;20416;-83
2020/12/26 09:41:59;;;;;;;111.75;62.70;;;;;;;11.56;78.52;97117.72;5050396;28;20040;-80
2020/12/26 09:44:24;;;;;;;106.55;57.67;;;;;;;11.44;79.80;97114.94;5030598;28;20029;-82
2020/12/26 09:46:58;;;;;;;98.10;55.00;;;;;;;11.44;79.84;97106.06;5033759;28;20083;-84
2020/12/26 09:49:23;;;;;;;83.50;48.40;;;;;;;11.51;79.66;97114.50;5033868;28;20412;-83
2020/12/26 09:51:49;;;;;;;123.20;68.55;;;;;;;11.42;79.22;97111.53;5032424;28;20029;-85
2020/12/26 09:54:15;;;;;;;96.53;53.00;;;;;;;11.28;80.64;97113.50;5049885;28;20021;-81
2020/12/26 09:56:40;;;;;;;72.55;39.42;;;;;;;11.41;79.98;97112.47;5034429;28;20385;-83
2020/12/26 09:59:06;;;;;;;61.50;30.40;;;;;;;11.51;80.15;97118.03;5050973;28;20044;-83
2020/12/26 10:01:31;;;;;;;39.08;22.27;;;;;;;11.33;79.93;97105.97;5049608;28;20041;-83
2020/12/26 10:03:57;;;;;;;37.08;19.75;;;;;;;11.63;79.11;97108.25;5053991;28;20024;-85
2020/12/26 10:06:23;;;;;;;37.88;16.98;;;;;;;11.81;78.29;97105.09;5054555;28;20095;-82
2020/12/26 10:08:48;;;;;;;29.40;17.38;;;;;;;11.85;77.13;97114.63;5054544;28;20024;-81
2020/12/26 10:11:18;;;;;;;30.83;15.32;;;;;;;11.93;76.51;97117.59;5056294;28;20045;-81
2020/12/26 10:13:45;;;;;;;25.00;15.57;;;;;;;11.98;76.90;97109.22;5041604;28;20056;-86
2020/12/26 10:16:11;;;;;;;26.98;15.05;;;;;;;12.21;75.61;97116.38;5056773;28;20017;-85
2020/12/26 10:18:38;;;;;;;29.17;13.15;;;;;;;12.16;75.53;97121.25;5038994;28;20329;-80
2020/12/26 10:21:04;;;;;;;20.13;13.07;;;;;;;11.96;77.20;97127.25;5040834;28;20076;-86
2020/12/26 10:23:30;;;;;;;31.17;15.15;;;;;;;12.13;76.38;97132.19;5038630;28;20056;-86
2020/12/26 10:26:03;;;;;;;27.08;15.88;;;;;;;12.24;75.63;97124.19;5038445;28;20032;-85
2020/12/26 10:28:29;;;;;;;33.13;16.98;;;;;;;12.32;75.22;97113.75;5036293;28;20108;-85
2020/12/26 10:30:54;;;;;;;23.92;12.85;;;;;;;12.45;73.77;97119.91;5039063;28;20124;-86
2020/12/26 10:33:20;;;;;;;28.23;13.50;;;;;;;12.39;73.73;97112.34;5038096;28;20112;-87
2020/12/26 10:35:46;;;;;;;22.75;14.00;;;;;;;12.18;74.85;97116.59;5038093;28;20114;-86
2020/12/26 10:38:11;;;;;;;24.70;13.90;;;;;;;11.94;75.19;97119.31;5039309;28;20031;-85
2020/12/26 10:40:37;;;;;;;26.73;14.57;;;;;;;11.84;75.99;97110.22;5037799;28;20518;-85
2020/12/26 10:43:02;;;;;;;24.17;12.77;;;;;;;11.87;76.54;97122.56;5039274;28;20124;-86
2020/12/26 10:45:28;;;;;;;19.48;10.48;;;;;;;11.89;76.73;97125.97;5038502;28;20049;-87
2020/12/26 10:47:54;;;;;;;18.40;12.43;;;;;;;11.96;76.23;97129.94;5055497;28;20040;-87
2020/12/26 10:50:19;;;;;;;18.40;10.95;;;;;;;11.94;75.81;97129.16;5038635;28;20098;-86
2020/12/26 10:52:45;;;;;;;17.75;10.68;;;;;;;11.95;75.89;97120.16;5038759;28;20062;-86
2020/12/26 10:55:17;;;;;;;16.10;10.57;;;;;;;11.68;76.85;97128.38;5038050;28;20033;-87
2020/12/26 10:57:43;;;;;;;22.90;11.00;;;;;;;11.74;76.94;97124.44;5038612;28;20033;-87
2020/12/26 11:00:10;;;;;;;27.15;13.82;;;;;;;11.78;77.08;97124.06;5038906;28;20043;-87
2020/12/26 11:02:35;;;;;;;19.52;12.32;;;;;;;11.61;77.49;97116.41;5038842;28;20505;-86
2020/12/26 11:05:01;;;;;;;22.67;12.05;;;;;;;11.51;78.36;97130.56;5055047;28;20039;-86
2020/12/26 11:07:27;;;;;;;20.67;11.65;;;;;;;11.63;78.00;97132.38;5037953;28;20114;-87
2020/12/26 11:09:52;;;;;;;16.92;10.50;;;;;;;11.76;76.30;97128.69;5038007;28;20056;-86
2020/12/26 11:12:18;;;;;;;20.92;11.77;;;;;;;11.80;76.29;97127.53;5039403;28;20516;-86
2020/12/26 11:14:47;;;;;;;22.83;12.55;;;;;;;11.80;76.74;97132.88;5038468;28;20028;-86
2020/12/26 11:17:13;;;;;;;30.13;14.23;;;;;;;11.81;76.87;97131.88;5039747;28;20555;-86
2020/12/26 11:19:39;;;;;;;44.63;16.75;;;;;;;11.91;76.40;97129.38;5037461;28;20021;-86
2020/12/26 11:22:05;;;;;;;34.28;18.58;;;;;;;11.89;76.40;97134.03;5036412;28;20136;-86
2020/12/26 11:24:30;;;;;;;39.80;16.42;;;;;;;11.90;76.58;97138.41;5036894;28;20547;-86